sensor_id;sensor_type;location;lat;lon;timestamp;temperature;humidity
1297;DHT22;641;48.492;9.184;2024-01-30T00:01:42;1.80;99.90
1297;DHT22;641;48.492;9.184;2024-01-30T00:04:07;1.60;99.90
1297;DHT22;641;48.492;9.184;2024-01-30T00:06:33;1.60;99.90
1297;DHT22;641;48.492;9.184;2024-01-30T00:08:58;1.50;99.90
1297;DHT22;641;48.492;9.184;2024-01-30T00:11:24;1.30;99.90
1297;DHT22;641;48.492;9.184;2024-01-30T00:13:53;1.30;99.90
1297;DHT22;641;48.492;9.184;2024-01-30T00:16:23;1.30;99.90
1297;DHT22;641;48.492;9.184;2024-01-30T00:18:53;1.20;99.90
1297;DHT22;641;48.492;9.184;2024-01-30T00:21:19;1.20;99.90
1297;DHT22;641;48.492;9.184;2024-01-30T00:23:45;1.20;99.90
1297;DHT22;641;48.492;9.184;2024-01-30T00:26:11;1.20;99.90
1297;DHT22;641;48.492;9.184;2024-01-30T00:28:40;1.10;99.90
1297;DHT22;641;48.492;9.184;2024-01-30T00:31:06;1.10;99.90
1297;DHT22;641;48.492;9.184;2024-01-30T00:33:31;1.20;99.90
1297;DHT22;641;48.492;9.184;2024-01-30T00:35:57;1.20;99.90
1297;DHT22;641;48.492;9.184;2024-01-30T00:38:22;1.30;99.90
1297;DHT22;641;48.492;9.184;2024-01-30T00:40:48;1.30;99.90
1297;DHT22;641;48.492;9.184;2024-01-30T00:43:14;1.10;99.90
1297;DHT22;641;48.492;9.184;2024-01-30T00:45:40;1.20;99.90
1297;DHT22;641;48.492;9.184;2024-01-30T00:48:06;1.20;99.90
1297;DHT22;641;48.492;9.184;2024-01-30T00:50:31;1.10;99.90
1297;DHT22;641;48.492;9.184;2024-01-30T00:52:57;1.20;99.90
1297;DHT22;641;48.492;9.184;2024-01-30T00:55:22;1.20;99.90
1297;DHT22;641;48.492;9.184;2024-01-30T00:57:48;1.10;99.90
1297;DHT22;641;48.492;9.184;2024-01-30T01:00:14;1.10;99.90
1297;DHT22;641;48.492;9.184;2024-01-30T01:02:42;1.20;99.90
1297;DHT22;641;48.492;9.184;2024-01-30T01:05:08;1.20;99.90
1297;DHT22;641;48.492;9.184;2024-01-30T01:07:34;1.30;99.90
1297;DHT22;641;48.492;9.184;2024-01-30T01:09:59;1.20;99.90
1297;DHT22;641;48.492;9.184;2024-01-30T01:12:25;1.30;99.90
1297;DHT22;641;48.492;9.184;2024-01-30T01:14:51;1.30;99.90
1297;DHT22;641;48.492;9.184;2024-01-30T01:17:16;1.30;99.90
1297;DHT22;641;48.492;9.184;2024-01-30T01:19:43;1.30;99.90
1297;DHT22;641;48.492;9.184;2024-01-30T01:22:09;1.20;99.90
1297;DHT22;641;48.492;9.184;2024-01-30T01:24:35;1.20;99.90
1297;DHT22;641;48.492;9.184;2024-01-30T01:27:01;1.20;99.90
1297;DHT22;641;48.492;9.184;2024-01-30T01:29:27;1.20;99.90
1297;DHT22;641;48.492;9.184;2024-01-30T01:31:55;1.20;99.90
1297;DHT22;641;48.492;9.184;2024-01-30T01:34:21;1.30;99.90
1297;DHT22;641;48.492;9.184;2024-01-30T01:36:47;1.30;99.90
1297;DHT22;641;48.492;9.184;2024-01-30T01:39:13;1.30;99.90
1297;DHT22;641;48.492;9.184;2024-01-30T01:41:39;1.30;99.90
1297;DHT22;641;48.492;9.184;2024-01-30T01:44:04;1.30;99.90
1297;DHT22;641;48.492;9.184;2024-01-30T01:46:33;1.10;99.90
1297;DHT22;641;48.492;9.184;2024-01-30T01:48:58;1.10;99.90
1297;DHT22;641;48.492;9.184;2024-01-30T01:51:27;1.10;99.90
1297;DHT22;641;48.492;9.184;2024-01-30T01:53:54;1.20;99.90
1297;DHT22;641;48.492;9.184;2024-01-30T01:56:20;1.10;99.90
1297;DHT22;641;48.492;9.184;2024-01-30T01:58:46;1.10;99.90
1297;DHT22;641;48.492;9.184;2024-01-30T02:01:13;1.10;99.90
1297;DHT22;641;48.492;9.184;2024-01-30T02:03:40;1.00;99.90
1297;DHT22;641;48.492;9.184;2024-01-30T02:06:06;0.90;99.90
1297;DHT22;641;48.492;9.184;2024-01-30T02:08:32;0.90;99.90
1297;DHT22;641;48.492;9.184;2024-01-30T02:10:58;0.90;99.90
1297;DHT22;641;48.492;9.184;2024-01-30T02:13:23;0.80;99.90
1297;DHT22;641;48.492;9.184;2024-01-30T02:15:50;0.90;99.90
1297;DHT22;641;48.492;9.184;2024-01-30T02:18:16;0.90;99.90
1297;DHT22;641;48.492;9.184;2024-01-30T02:20:42;0.80;99.90
1297;DHT22;641;48.492;9.184;2024-01-30T02:23:09;0.80;99.90
1297;DHT22;641;48.492;9.184;2024-01-30T02:25:39;0.80;99.90
1297;DHT22;641;48.492;9.184;2024-01-30T02:28:14;0.70;99.90
1297;DHT22;641;48.492;9.184;2024-01-30T02:30:40;0.70;99.90
1297;DHT22;641;48.492;9.184;2024-01-30T02:33:06;0.70;99.90
1297;DHT22;641;48.492;9.184;2024-01-30T02:35:31;0.70;99.90
1297;DHT22;641;48.492;9.184;2024-01-30T02:37:57;0.50;99.90
1297;DHT22;641;48.492;9.184;2024-01-30T02:40:23;0.40;99.90
1297;DHT22;641;48.492;9.184;2024-01-30T02:42:48;0.40;99.90
1297;DHT22;641;48.492;9.184;2024-01-30T02:45:14;0.50;99.90
1297;DHT22;641;48.492;9.184;2024-01-30T02:47:40;0.50;99.90
1297;DHT22;641;48.492;9.184;2024-01-30T02:50:06;0.60;99.90
1297;DHT22;641;48.492;9.184;2024-01-30T02:52:32;0.70;99.90
1297;DHT22;641;48.492;9.184;2024-01-30T02:54:57;0.70;99.90
1297;DHT22;641;48.492;9.184;2024-01-30T02:57:23;0.70;99.90
1297;DHT22;641;48.492;9.184;2024-01-30T02:59:48;0.60;99.90
1297;DHT22;641;48.492;9.184;2024-01-30T03:02:14;0.40;99.90
1297;DHT22;641;48.492;9.184;2024-01-30T03:04:42;0.30;99.90
1297;DHT22;641;48.492;9.184;2024-01-30T03:07:08;0.30;99.90
1297;DHT22;641;48.492;9.184;2024-01-30T03:09:34;0.40;99.90
1297;DHT22;641;48.492;9.184;2024-01-30T03:11:59;0.40;99.90
1297;DHT22;641;48.492;9.184;2024-01-30T03:14:25;0.30;99.90
1297;DHT22;641;48.492;9.184;2024-01-30T03:16:59;0.40;99.90
1297;DHT22;641;48.492;9.184;2024-01-30T03:19:24;0.30;99.90
1297;DHT22;641;48.492;9.184;2024-01-30T03:21:50;0.30;99.90
1297;DHT22;641;48.492;9.184;2024-01-30T03:24:16;0.30;99.90
1297;DHT22;641;48.492;9.184;2024-01-30T03:26:42;0.30;99.90
1297;DHT22;641;48.492;9.184;2024-01-30T03:29:08;0.20;99.90
1297;DHT22;641;48.492;9.184;2024-01-30T03:31:34;0.20;99.90
1297;DHT22;641;48.492;9.184;2024-01-30T03:34:00;0.10;99.90
1297;DHT22;641;48.492;9.184;2024-01-30T03:36:25;0.10;99.90
1297;DHT22;641;48.492;9.184;2024-01-30T03:38:51;0.00;99.90
1297;DHT22;641;48.492;9.184;2024-01-30T03:41:17;-0.10;99.90
1297;DHT22;641;48.492;9.184;2024-01-30T03:43:42;-0.10;99.90
1297;DHT22;641;48.492;9.184;2024-01-30T03:46:08;-0.10;99.90
1297;DHT22;641;48.492;9.184;2024-01-30T03:48:33;0.00;99.90
1297;DHT22;641;48.492;9.184;2024-01-30T03:50:59;0.10;99.90
1297;DHT22;641;48.492;9.184;2024-01-30T03:53:24;-0.10;99.90
1297;DHT22;641;48.492;9.184;2024-01-30T03:55:50;0.00;99.90
1297;DHT22;641;48.492;9.184;2024-01-30T03:58:16;0.00;99.90
1297;DHT22;641;48.492;9.184;2024-01-30T04:00:42;0.00;99.90
1297;DHT22;641;48.492;9.184;2024-01-30T04:03:07;-0.10;99.90
1297;DHT22;641;48.492;9.184;2024-01-30T04:05:34;0.00;99.90
1297;DHT22;641;48.492;9.184;2024-01-30T04:07:59;0.10;99.90
1297;DHT22;641;48.492;9.184;2024-01-30T04:10:25;0.10;99.90
1297;DHT22;641;48.492;9.184;2024-01-30T04:12:51;0.00;99.90
1297;DHT22;641;48.492;9.184;2024-01-30T04:15:20;0.00;99.90
1297;DHT22;641;48.492;9.184;2024-01-30T04:17:45;-0.10;99.90
1297;DHT22;641;48.492;9.184;2024-01-30T04:20:14;-0.10;99.90
1297;DHT22;641;48.492;9.184;2024-01-30T04:22:44;0.00;99.90
1297;DHT22;641;48.492;9.184;2024-01-30T04:25:10;0.10;99.90
1297;DHT22;641;48.492;9.184;2024-01-30T04:27:35;0.00;99.90
1297;DHT22;641;48.492;9.184;2024-01-30T04:30:01;0.00;99.90
1297;DHT22;641;48.492;9.184;2024-01-30T04:32:26;-0.10;99.90
1297;DHT22;641;48.492;9.184;2024-01-30T04:34:52;-0.20;99.90
1297;DHT22;641;48.492;9.184;2024-01-30T04:37:17;-0.20;99.90
1297;DHT22;641;48.492;9.184;2024-01-30T04:39:43;-0.10;99.90
1297;DHT22;641;48.492;9.184;2024-01-30T04:42:08;-0.20;99.90
1297;DHT22;641;48.492;9.184;2024-01-30T04:44:34;-0.20;99.90
1297;DHT22;641;48.492;9.184;2024-01-30T04:46:59;-0.10;99.90
1297;DHT22;641;48.492;9.184;2024-01-30T04:49:27;-0.10;99.90
1297;DHT22;641;48.492;9.184;2024-01-30T04:51:52;0.00;99.90
1297;DHT22;641;48.492;9.184;2024-01-30T04:54:18;-0.10;99.90
1297;DHT22;641;48.492;9.184;2024-01-30T04:56:44;-0.10;99.90
1297;DHT22;641;48.492;9.184;2024-01-30T04:59:09;-0.10;99.90
1297;DHT22;641;48.492;9.184;2024-01-30T05:01:35;-0.10;99.90
1297;DHT22;641;48.492;9.184;2024-01-30T05:04:00;0.00;99.90
1297;DHT22;641;48.492;9.184;2024-01-30T05:06:29;0.10;99.90
1297;DHT22;641;48.492;9.184;2024-01-30T05:08:55;0.10;99.90
1297;DHT22;641;48.492;9.184;2024-01-30T05:11:21;0.10;99.90
1297;DHT22;641;48.492;9.184;2024-01-30T05:13:46;0.00;99.90
1297;DHT22;641;48.492;9.184;2024-01-30T05:16:13;-0.20;99.90
1297;DHT22;641;48.492;9.184;2024-01-30T05:18:38;-0.40;99.90
1297;DHT22;641;48.492;9.184;2024-01-30T05:21:05;-0.50;99.90
1297;DHT22;641;48.492;9.184;2024-01-30T05:23:30;-0.50;99.90
1297;DHT22;641;48.492;9.184;2024-01-30T05:25:56;-0.50;99.90
1297;DHT22;641;48.492;9.184;2024-01-30T05:28:21;-0.50;99.90
1297;DHT22;641;48.492;9.184;2024-01-30T05:30:47;-0.50;99.90
1297;DHT22;641;48.492;9.184;2024-01-30T05:33:12;-0.50;99.90
1297;DHT22;641;48.492;9.184;2024-01-30T05:35:38;-0.30;99.90
1297;DHT22;641;48.492;9.184;2024-01-30T05:38:04;-0.20;99.90
1297;DHT22;641;48.492;9.184;2024-01-30T05:40:32;0.00;99.90
1297;DHT22;641;48.492;9.184;2024-01-30T05:42:58;-0.20;99.90
1297;DHT22;641;48.492;9.184;2024-01-30T05:45:26;-0.40;99.90
1297;DHT22;641;48.492;9.184;2024-01-30T05:47:52;-0.40;99.90
1297;DHT22;641;48.492;9.184;2024-01-30T05:50:18;-0.40;99.90
1297;DHT22;641;48.492;9.184;2024-01-30T05:52:43;-0.50;99.90
1297;DHT22;641;48.492;9.184;2024-01-30T05:55:09;-0.50;99.90
1297;DHT22;641;48.492;9.184;2024-01-30T05:57:35;-0.50;99.90
1297;DHT22;641;48.492;9.184;2024-01-30T06:00:00;-0.50;99.90
1297;DHT22;641;48.492;9.184;2024-01-30T06:02:26;-0.50;99.90
1297;DHT22;641;48.492;9.184;2024-01-30T06:04:51;-0.40;99.90
1297;DHT22;641;48.492;9.184;2024-01-30T06:07:17;-0.50;99.90
1297;DHT22;641;48.492;9.184;2024-01-30T06:09:43;-0.50;99.90
1297;DHT22;641;48.492;9.184;2024-01-30T06:12:08;-0.50;99.90
1297;DHT22;641;48.492;9.184;2024-01-30T06:14:34;-0.60;99.90
1297;DHT22;641;48.492;9.184;2024-01-30T06:17:00;-0.50;99.90
1297;DHT22;641;48.492;9.184;2024-01-30T06:19:25;-0.50;99.90
1297;DHT22;641;48.492;9.184;2024-01-30T06:21:51;-0.40;99.90
1297;DHT22;641;48.492;9.184;2024-01-30T06:24:16;-0.50;99.90
1297;DHT22;641;48.492;9.184;2024-01-30T06:26:42;-0.60;99.90
1297;DHT22;641;48.492;9.184;2024-01-30T06:29:08;-0.70;99.90
1297;DHT22;641;48.492;9.184;2024-01-30T06:31:40;-0.50;99.90
1297;DHT22;641;48.492;9.184;2024-01-30T06:34:05;-0.30;99.90
1297;DHT22;641;48.492;9.184;2024-01-30T06:36:31;-0.20;99.90
1297;DHT22;641;48.492;9.184;2024-01-30T06:38:56;-0.30;99.90
1297;DHT22;641;48.492;9.184;2024-01-30T06:41:22;-0.30;99.90
1297;DHT22;641;48.492;9.184;2024-01-30T06:43:47;-0.20;99.90
1297;DHT22;641;48.492;9.184;2024-01-30T06:46:13;-0.10;99.90
1297;DHT22;641;48.492;9.184;2024-01-30T06:48:39;-0.20;99.90
1297;DHT22;641;48.492;9.184;2024-01-30T06:51:05;-0.20;99.90
1297;DHT22;641;48.492;9.184;2024-01-30T06:53:31;-0.20;99.90
1297;DHT22;641;48.492;9.184;2024-01-30T06:55:57;-0.10;99.90
1297;DHT22;641;48.492;9.184;2024-01-30T06:58:22;-0.10;99.90
1297;DHT22;641;48.492;9.184;2024-01-30T07:00:48;-0.10;99.90
1297;DHT22;641;48.492;9.184;2024-01-30T07:03:13;-0.20;99.90
1297;DHT22;641;48.492;9.184;2024-01-30T07:05:39;-0.20;99.90
1297;DHT22;641;48.492;9.184;2024-01-30T07:08:05;-0.10;99.90
1297;DHT22;641;48.492;9.184;2024-01-30T07:10:30;-0.20;99.90
1297;DHT22;641;48.492;9.184;2024-01-30T07:12:56;-0.30;99.90
1297;DHT22;641;48.492;9.184;2024-01-30T07:15:22;-0.30;99.90
1297;DHT22;641;48.492;9.184;2024-01-30T07:17:47;-0.20;99.90
1297;DHT22;641;48.492;9.184;2024-01-30T07:20:13;-0.20;99.90
1297;DHT22;641;48.492;9.184;2024-01-30T07:22:40;-0.10;99.90
1297;DHT22;641;48.492;9.184;2024-01-30T07:25:06;-0.10;99.90
1297;DHT22;641;48.492;9.184;2024-01-30T07:27:31;-0.10;99.90
1297;DHT22;641;48.492;9.184;2024-01-30T07:29:57;-0.20;99.90
1297;DHT22;641;48.492;9.184;2024-01-30T07:32:22;0.00;99.90
1297;DHT22;641;48.492;9.184;2024-01-30T07:34:49;0.20;99.90
1297;DHT22;641;48.492;9.184;2024-01-30T07:37:14;0.20;99.90
1297;DHT22;641;48.492;9.184;2024-01-30T07:39:41;0.30;99.90
1297;DHT22;641;48.492;9.184;2024-01-30T07:42:07;0.40;99.90
1297;DHT22;641;48.492;9.184;2024-01-30T07:44:34;0.40;99.90
1297;DHT22;641;48.492;9.184;2024-01-30T07:46:59;0.40;99.90
1297;DHT22;641;48.492;9.184;2024-01-30T07:49:25;0.50;99.90
1297;DHT22;641;48.492;9.184;2024-01-30T07:51:50;0.70;99.90
1297;DHT22;641;48.492;9.184;2024-01-30T07:54:16;0.80;99.90
1297;DHT22;641;48.492;9.184;2024-01-30T07:56:42;0.80;99.90
1297;DHT22;641;48.492;9.184;2024-01-30T07:59:11;0.90;99.90
1297;DHT22;641;48.492;9.184;2024-01-30T08:01:37;0.90;99.90
1297;DHT22;641;48.492;9.184;2024-01-30T08:04:03;0.90;99.90
1297;DHT22;641;48.492;9.184;2024-01-30T08:06:29;1.10;99.90
1297;DHT22;641;48.492;9.184;2024-01-30T08:08:54;1.30;99.90
1297;DHT22;641;48.492;9.184;2024-01-30T08:11:20;1.40;99.90
1297;DHT22;641;48.492;9.184;2024-01-30T08:13:51;1.50;99.90
1297;DHT22;641;48.492;9.184;2024-01-30T08:16:17;1.60;99.90
1297;DHT22;641;48.492;9.184;2024-01-30T08:18:42;1.50;99.90
1297;DHT22;641;48.492;9.184;2024-01-30T08:21:08;1.50;99.90
1297;DHT22;641;48.492;9.184;2024-01-30T08:23:34;1.80;99.90
1297;DHT22;641;48.492;9.184;2024-01-30T08:26:00;1.80;99.90
1297;DHT22;641;48.492;9.184;2024-01-30T08:28:25;2.00;99.90
1297;DHT22;641;48.492;9.184;2024-01-30T08:30:51;2.00;99.90
1297;DHT22;641;48.492;9.184;2024-01-30T08:33:17;2.00;99.90
1297;DHT22;641;48.492;9.184;2024-01-30T08:35:42;2.10;99.90
1297;DHT22;641;48.492;9.184;2024-01-30T08:38:08;2.20;99.90
1297;DHT22;641;48.492;9.184;2024-01-30T08:40:34;2.20;99.90
1297;DHT22;641;48.492;9.184;2024-01-30T08:43:00;2.10;99.90
1297;DHT22;641;48.492;9.184;2024-01-30T08:45:26;2.20;99.90
1297;DHT22;641;48.492;9.184;2024-01-30T08:47:51;2.30;99.90
1297;DHT22;641;48.492;9.184;2024-01-30T08:50:17;2.40;99.90
1297;DHT22;641;48.492;9.184;2024-01-30T08:52:42;2.50;99.90
1297;DHT22;641;48.492;9.184;2024-01-30T08:55:08;2.60;99.90
1297;DHT22;641;48.492;9.184;2024-01-30T08:57:34;2.60;99.90
1297;DHT22;641;48.492;9.184;2024-01-30T09:00:00;2.60;99.90
1297;DHT22;641;48.492;9.184;2024-01-30T09:02:25;2.80;99.90
1297;DHT22;641;48.492;9.184;2024-01-30T09:04:51;2.90;99.90
1297;DHT22;641;48.492;9.184;2024-01-30T09:07:16;2.80;99.90
1297;DHT22;641;48.492;9.184;2024-01-30T09:09:42;2.80;99.90
1297;DHT22;641;48.492;9.184;2024-01-30T09:12:08;2.80;99.90
1297;DHT22;641;48.492;9.184;2024-01-30T09:14:37;2.70;99.90
1297;DHT22;641;48.492;9.184;2024-01-30T09:17:03;2.70;99.90
1297;DHT22;641;48.492;9.184;2024-01-30T09:19:29;2.70;99.90
1297;DHT22;641;48.492;9.184;2024-01-30T09:21:55;2.80;99.90
1297;DHT22;641;48.492;9.184;2024-01-30T09:24:20;3.00;99.90
1297;DHT22;641;48.492;9.184;2024-01-30T09:26:46;3.10;99.90
1297;DHT22;641;48.492;9.184;2024-01-30T09:29:11;3.30;99.90
1297;DHT22;641;48.492;9.184;2024-01-30T09:31:37;3.40;99.90
1297;DHT22;641;48.492;9.184;2024-01-30T09:34:03;3.50;99.90
1297;DHT22;641;48.492;9.184;2024-01-30T09:36:28;3.60;99.90
1297;DHT22;641;48.492;9.184;2024-01-30T09:38:54;3.80;99.90
1297;DHT22;641;48.492;9.184;2024-01-30T09:41:20;3.90;99.90
1297;DHT22;641;48.492;9.184;2024-01-30T09:43:50;4.00;99.90
1297;DHT22;641;48.492;9.184;2024-01-30T09:46:17;4.30;99.90
1297;DHT22;641;48.492;9.184;2024-01-30T09:48:45;4.40;99.90
1297;DHT22;641;48.492;9.184;2024-01-30T09:51:11;4.60;99.90
1297;DHT22;641;48.492;9.184;2024-01-30T09:53:38;4.60;99.90
1297;DHT22;641;48.492;9.184;2024-01-30T09:56:05;4.70;99.90
1297;DHT22;641;48.492;9.184;2024-01-30T09:58:31;4.80;99.90
1297;DHT22;641;48.492;9.184;2024-01-30T10:00:57;4.90;99.90
1297;DHT22;641;48.492;9.184;2024-01-30T10:03:22;5.20;99.90
1297;DHT22;641;48.492;9.184;2024-01-30T10:05:51;5.20;99.90
1297;DHT22;641;48.492;9.184;2024-01-30T10:08:20;5.30;99.90
1297;DHT22;641;48.492;9.184;2024-01-30T10:10:49;5.50;99.90
1297;DHT22;641;48.492;9.184;2024-01-30T10:13:18;5.50;99.90
1297;DHT22;641;48.492;9.184;2024-01-30T10:15:44;5.60;99.90
1297;DHT22;641;48.492;9.184;2024-01-30T10:18:10;5.50;99.90
1297;DHT22;641;48.492;9.184;2024-01-30T10:20:36;5.40;99.90
1297;DHT22;641;48.492;9.184;2024-01-30T10:23:02;5.30;99.90
1297;DHT22;641;48.492;9.184;2024-01-30T10:25:30;5.30;99.90
1297;DHT22;641;48.492;9.184;2024-01-30T10:27:56;5.50;99.90
1297;DHT22;641;48.492;9.184;2024-01-30T10:30:23;5.60;99.90
1297;DHT22;641;48.492;9.184;2024-01-30T10:32:49;5.70;99.90
1297;DHT22;641;48.492;9.184;2024-01-30T10:35:15;5.80;99.90
1297;DHT22;641;48.492;9.184;2024-01-30T10:37:43;5.60;99.90
1297;DHT22;641;48.492;9.184;2024-01-30T10:40:09;5.50;99.90
1297;DHT22;641;48.492;9.184;2024-01-30T10:42:38;5.40;99.90
1297;DHT22;641;48.492;9.184;2024-01-30T10:45:07;5.40;99.90
1297;DHT22;641;48.492;9.184;2024-01-30T10:47:34;5.50;99.90
1297;DHT22;641;48.492;9.184;2024-01-30T10:50:02;5.60;99.90
1297;DHT22;641;48.492;9.184;2024-01-30T10:52:29;5.90;99.90
1297;DHT22;641;48.492;9.184;2024-01-30T10:54:55;6.10;99.90
1297;DHT22;641;48.492;9.184;2024-01-30T10:57:25;6.30;99.90
1297;DHT22;641;48.492;9.184;2024-01-30T10:59:53;6.40;99.90
1297;DHT22;641;48.492;9.184;2024-01-30T11:02:21;6.30;99.90
1297;DHT22;641;48.492;9.184;2024-01-30T11:04:49;6.40;99.90
1297;DHT22;641;48.492;9.184;2024-01-30T11:07:18;6.50;99.90
1297;DHT22;641;48.492;9.184;2024-01-30T11:09:54;6.60;99.90
1297;DHT22;641;48.492;9.184;2024-01-30T11:12:27;6.80;99.90
1297;DHT22;641;48.492;9.184;2024-01-30T11:15:13;6.80;99.90
1297;DHT22;641;48.492;9.184;2024-01-30T11:17:43;6.90;99.90
1297;DHT22;641;48.492;9.184;2024-01-30T11:22:46;7.10;99.90
1297;DHT22;641;48.492;9.184;2024-01-30T11:25:16;7.20;99.90
1297;DHT22;641;48.492;9.184;2024-01-30T11:27:43;7.20;99.90
1297;DHT22;641;48.492;9.184;2024-01-30T11:30:09;7.20;99.90
1297;DHT22;641;48.492;9.184;2024-01-30T11:32:35;7.30;99.90
1297;DHT22;641;48.492;9.184;2024-01-30T11:35:02;7.40;99.90
1297;DHT22;641;48.492;9.184;2024-01-30T11:37:28;7.50;99.90
1297;DHT22;641;48.492;9.184;2024-01-30T11:39:56;7.60;99.90
1297;DHT22;641;48.492;9.184;2024-01-30T11:42:23;7.70;99.90
1297;DHT22;641;48.492;9.184;2024-01-30T11:44:52;7.60;99.90
1297;DHT22;641;48.492;9.184;2024-01-30T11:47:18;7.60;99.90
1297;DHT22;641;48.492;9.184;2024-01-30T11:49:43;7.40;99.90
1297;DHT22;641;48.492;9.184;2024-01-30T11:52:09;7.40;99.90
1297;DHT22;641;48.492;9.184;2024-01-30T11:54:35;7.50;99.90
1297;DHT22;641;48.492;9.184;2024-01-30T11:57:01;7.60;99.90
1297;DHT22;641;48.492;9.184;2024-01-30T11:59:26;7.80;99.90
1297;DHT22;641;48.492;9.184;2024-01-30T12:01:52;8.00;99.90
1297;DHT22;641;48.492;9.184;2024-01-30T12:04:18;8.10;99.90
1297;DHT22;641;48.492;9.184;2024-01-30T12:06:44;8.30;99.90
1297;DHT22;641;48.492;9.184;2024-01-30T12:09:09;8.40;99.90
1297;DHT22;641;48.492;9.184;2024-01-30T12:11:47;8.50;99.90
1297;DHT22;641;48.492;9.184;2024-01-30T12:14:13;8.60;99.90
1297;DHT22;641;48.492;9.184;2024-01-30T12:16:39;8.60;99.90
1297;DHT22;641;48.492;9.184;2024-01-30T12:19:05;8.70;99.90
1297;DHT22;641;48.492;9.184;2024-01-30T12:21:30;8.80;99.90
1297;DHT22;641;48.492;9.184;2024-01-30T12:23:57;8.90;99.90
1297;DHT22;641;48.492;9.184;2024-01-30T12:26:24;9.00;99.90
1297;DHT22;641;48.492;9.184;2024-01-30T12:28:54;9.10;99.90
1297;DHT22;641;48.492;9.184;2024-01-30T12:31:26;9.20;99.90
1297;DHT22;641;48.492;9.184;2024-01-30T12:33:52;9.30;99.90
1297;DHT22;641;48.492;9.184;2024-01-30T12:36:18;9.40;99.90
1297;DHT22;641;48.492;9.184;2024-01-30T12:38:44;9.60;99.90
1297;DHT22;641;48.492;9.184;2024-01-30T12:41:10;9.70;99.80
1297;DHT22;641;48.492;9.184;2024-01-30T12:43:36;9.80;98.90
1297;DHT22;641;48.492;9.184;2024-01-30T12:46:02;9.90;98.00
1297;DHT22;641;48.492;9.184;2024-01-30T12:48:28;10.00;97.20
1297;DHT22;641;48.492;9.184;2024-01-30T12:50:55;10.00;96.30
1297;DHT22;641;48.492;9.184;2024-01-30T12:53:21;10.10;96.40
1297;DHT22;641;48.492;9.184;2024-01-30T12:55:47;10.20;96.60
1297;DHT22;641;48.492;9.184;2024-01-30T12:58:12;10.40;95.70
1297;DHT22;641;48.492;9.184;2024-01-30T13:00:38;10.30;94.90
1297;DHT22;641;48.492;9.184;2024-01-30T13:03:04;10.50;93.50
1297;DHT22;641;48.492;9.184;2024-01-30T13:05:29;10.40;93.80
1297;DHT22;641;48.492;9.184;2024-01-30T13:07:55;10.30;93.90
1297;DHT22;641;48.492;9.184;2024-01-30T13:10:22;10.40;93.50
1297;DHT22;641;48.492;9.184;2024-01-30T13:12:48;10.50;93.80
1297;DHT22;641;48.492;9.184;2024-01-30T13:15:13;10.60;93.80
1297;DHT22;641;48.492;9.184;2024-01-30T13:17:39;10.50;94.00
1297;DHT22;641;48.492;9.184;2024-01-30T13:20:05;10.60;93.20
1297;DHT22;641;48.492;9.184;2024-01-30T13:22:33;10.50;93.50
1297;DHT22;641;48.492;9.184;2024-01-30T13:24:59;10.50;93.40
1297;DHT22;641;48.492;9.184;2024-01-30T13:27:24;10.40;93.60
1297;DHT22;641;48.492;9.184;2024-01-30T13:29:50;10.40;92.50
1297;DHT22;641;48.492;9.184;2024-01-30T13:32:15;10.40;92.50
1297;DHT22;641;48.492;9.184;2024-01-30T13:34:41;10.50;93.50
1297;DHT22;641;48.492;9.184;2024-01-30T13:37:08;10.40;92.90
1297;DHT22;641;48.492;9.184;2024-01-30T13:39:34;10.50;92.80
1297;DHT22;641;48.492;9.184;2024-01-30T13:41:59;10.50;92.80
1297;DHT22;641;48.492;9.184;2024-01-30T13:44:25;10.40;93.10
1297;DHT22;641;48.492;9.184;2024-01-30T13:46:50;10.40;93.20
1297;DHT22;641;48.492;9.184;2024-01-30T13:49:16;10.40;92.80
1297;DHT22;641;48.492;9.184;2024-01-30T13:51:42;10.40;92.40
1297;DHT22;641;48.492;9.184;2024-01-30T13:54:07;10.40;92.80
1297;DHT22;641;48.492;9.184;2024-01-30T13:56:33;10.50;92.90
1297;DHT22;641;48.492;9.184;2024-01-30T13:58:59;10.50;92.70
1297;DHT22;641;48.492;9.184;2024-01-30T14:01:26;10.60;93.00
1297;DHT22;641;48.492;9.184;2024-01-30T14:03:52;10.60;93.00
1297;DHT22;641;48.492;9.184;2024-01-30T14:06:18;10.70;93.60
1297;DHT22;641;48.492;9.184;2024-01-30T14:08:44;10.70;94.00
1297;DHT22;641;48.492;9.184;2024-01-30T14:11:09;10.70;94.00
1297;DHT22;641;48.492;9.184;2024-01-30T14:13:35;10.70;94.00
1297;DHT22;641;48.492;9.184;2024-01-30T14:16:01;10.70;94.30
1297;DHT22;641;48.492;9.184;2024-01-30T14:18:26;10.80;93.70
1297;DHT22;641;48.492;9.184;2024-01-30T14:20:52;10.80;93.80
1297;DHT22;641;48.492;9.184;2024-01-30T14:23:18;10.90;93.50
1297;DHT22;641;48.492;9.184;2024-01-30T14:25:43;11.00;91.80
1297;DHT22;641;48.492;9.184;2024-01-30T14:28:09;11.00;89.30
1297;DHT22;641;48.492;9.184;2024-01-30T14:30:35;11.10;87.80
1297;DHT22;641;48.492;9.184;2024-01-30T14:33:01;11.10;86.30
1297;DHT22;641;48.492;9.184;2024-01-30T14:35:26;11.20;85.20
1297;DHT22;641;48.492;9.184;2024-01-30T14:37:52;11.20;85.90
1297;DHT22;641;48.492;9.184;2024-01-30T14:40:18;11.30;85.80
1297;DHT22;641;48.492;9.184;2024-01-30T14:42:45;11.30;85.30
1297;DHT22;641;48.492;9.184;2024-01-30T14:45:11;11.30;86.60
1297;DHT22;641;48.492;9.184;2024-01-30T14:47:37;11.30;84.30
1297;DHT22;641;48.492;9.184;2024-01-30T14:50:03;11.30;83.90
1297;DHT22;641;48.492;9.184;2024-01-30T14:52:29;11.30;83.10
1297;DHT22;641;48.492;9.184;2024-01-30T14:54:55;11.20;83.60
1297;DHT22;641;48.492;9.184;2024-01-30T14:57:20;11.20;84.00
1297;DHT22;641;48.492;9.184;2024-01-30T14:59:46;11.10;86.20
1297;DHT22;641;48.492;9.184;2024-01-30T15:02:13;11.00;87.50
1297;DHT22;641;48.492;9.184;2024-01-30T15:04:40;10.90;87.90
1297;DHT22;641;48.492;9.184;2024-01-30T15:07:05;10.70;89.00
1297;DHT22;641;48.492;9.184;2024-01-30T15:09:31;10.50;90.00
1297;DHT22;641;48.492;9.184;2024-01-30T15:11:57;10.50;86.20
1297;DHT22;641;48.492;9.184;2024-01-30T15:14:23;10.40;89.90
1297;DHT22;641;48.492;9.184;2024-01-30T15:16:49;10.40;90.00
1297;DHT22;641;48.492;9.184;2024-01-30T15:19:15;10.20;90.80
1297;DHT22;641;48.492;9.184;2024-01-30T15:21:40;10.20;89.20
1297;DHT22;641;48.492;9.184;2024-01-30T15:24:06;10.10;90.30
1297;DHT22;641;48.492;9.184;2024-01-30T15:26:32;10.00;90.20
1297;DHT22;641;48.492;9.184;2024-01-30T15:28:57;10.00;88.50
1297;DHT22;641;48.492;9.184;2024-01-30T15:31:23;9.90;90.70
1297;DHT22;641;48.492;9.184;2024-01-30T15:33:48;9.90;90.70
1297;DHT22;641;48.492;9.184;2024-01-30T15:36:14;9.70;91.20
1297;DHT22;641;48.492;9.184;2024-01-30T15:38:41;9.70;92.20
1297;DHT22;641;48.492;9.184;2024-01-30T15:41:07;9.60;92.10
1297;DHT22;641;48.492;9.184;2024-01-30T15:43:32;9.50;92.70
1297;DHT22;641;48.492;9.184;2024-01-30T15:46:01;9.40;91.40
1297;DHT22;641;48.492;9.184;2024-01-30T15:48:27;9.40;90.90
1297;DHT22;641;48.492;9.184;2024-01-30T15:50:52;9.40;90.90
1297;DHT22;641;48.492;9.184;2024-01-30T15:53:20;9.40;91.20
1297;DHT22;641;48.492;9.184;2024-01-30T15:55:46;9.30;91.60
1297;DHT22;641;48.492;9.184;2024-01-30T15:58:12;9.20;91.90
1297;DHT22;641;48.492;9.184;2024-01-30T16:00:37;9.20;91.80
1297;DHT22;641;48.492;9.184;2024-01-30T16:03:04;9.20;91.40
1297;DHT22;641;48.492;9.184;2024-01-30T16:05:30;9.10;91.50
1297;DHT22;641;48.492;9.184;2024-01-30T16:07:55;9.10;91.60
1297;DHT22;641;48.492;9.184;2024-01-30T16:10:21;9.00;91.40
1297;DHT22;641;48.492;9.184;2024-01-30T16:12:46;9.00;92.00
1297;DHT22;641;48.492;9.184;2024-01-30T16:15:16;8.90;92.30
1297;DHT22;641;48.492;9.184;2024-01-30T16:17:42;8.80;92.10
1297;DHT22;641;48.492;9.184;2024-01-30T16:20:08;8.80;92.70
1297;DHT22;641;48.492;9.184;2024-01-30T16:22:34;8.70;92.30
1297;DHT22;641;48.492;9.184;2024-01-30T16:25:00;8.60;92.60